createdAt,value
2019-04-07T00:01:51.462Z,26.30
2019-04-07T00:04:21.569Z,27.10
2019-04-07T00:06:51.383Z,27.67
2019-04-07T00:09:21.028Z,28.52
2019-04-07T00:11:50.793Z,28.02
2019-04-07T00:14:20.668Z,26.97
2019-04-07T00:16:50.527Z,27.93
2019-04-07T00:19:20.873Z,29.00
2019-04-07T00:21:50.512Z,28.35
2019-04-07T00:24:20.206Z,29.10
2019-04-07T00:26:49.726Z,30.00
2019-04-07T00:29:19.542Z,28.60
2019-04-07T00:31:50.017Z,31.80
2019-04-07T00:34:20.500Z,31.15
2019-04-07T00:36:50.598Z,29.20
2019-04-07T00:39:20.816Z,31.75
2019-04-07T00:41:50.733Z,29.40
2019-04-07T00:44:20.548Z,30.80
2019-04-07T00:46:50.954Z,29.60
2019-04-07T00:49:20.783Z,31.52
2019-04-07T00:51:52.095Z,33.00
2019-04-07T00:54:21.688Z,30.27
2019-04-07T00:56:51.291Z,32.55
2019-04-07T00:59:20.949Z,32.42
2019-04-07T01:01:51.425Z,32.00
2019-04-07T01:04:21.168Z,31.00
2019-04-07T01:06:50.669Z,32.35
2019-04-07T01:09:20.308Z,32.65
2019-04-07T01:11:49.819Z,30.70
2019-04-07T01:14:19.477Z,31.25
2019-04-07T01:16:49.132Z,31.65
2019-04-07T01:19:18.927Z,32.25
2019-04-07T01:21:48.772Z,34.38
2019-04-07T01:24:18.739Z,33.92
2019-04-07T01:26:49.294Z,33.33
2019-04-07T01:29:19.003Z,34.80
2019-04-07T01:31:48.678Z,33.95
2019-04-07T01:34:18.476Z,34.55
2019-04-07T01:36:49.129Z,34.90
2019-04-07T01:39:19.401Z,33.58
2019-04-07T01:41:51.090Z,33.85
2019-04-07T01:44:31.327Z,35.40
2019-04-07T01:47:14.207Z,35.45
2019-04-07T01:50:01.176Z,34.63
2019-04-07T01:52:38.170Z,32.80
2019-04-07T01:55:12.935Z,31.93
2019-04-07T01:57:59.723Z,30.90
2019-04-07T02:00:31.626Z,32.93
2019-04-07T02:03:16.403Z,33.10
2019-04-07T02:05:57.142Z,31.17
2019-04-07T02:08:18.809Z,33.13
2019-04-07T02:11:06.097Z,33.85
2019-04-07T02:13:37.822Z,32.23
2019-04-07T02:16:15.622Z,34.03
2019-04-07T02:19:02.854Z,35.25
2019-04-07T02:21:40.737Z,33.08
2019-04-07T02:24:12.857Z,34.43
2019-04-07T02:26:53.164Z,36.28
2019-04-07T02:29:24.649Z,34.60
2019-04-07T02:32:14.094Z,32.48
2019-04-07T02:34:45.510Z,35.38
2019-04-07T02:37:33.366Z,36.85
2019-04-07T02:40:04.591Z,35.13
2019-04-07T02:42:37.146Z,35.88
2019-04-07T02:50:37.038Z,34.38
2019-04-07T02:53:24.581Z,35.10
2019-04-07T02:55:55.080Z,36.25
2019-04-07T02:58:27.161Z,36.15
2019-04-07T03:01:03.808Z,37.38
2019-04-07T03:03:39.528Z,38.55
2019-04-07T03:06:37.637Z,39.10
2019-04-07T03:09:02.286Z,38.05
2019-04-07T03:11:33.628Z,38.45
2019-04-07T03:14:05.679Z,38.50
2019-04-07T03:16:53.219Z,36.80
2019-04-07T03:19:25.349Z,36.68
2019-04-07T03:22:11.696Z,39.42
2019-04-07T03:24:44.523Z,38.70
2019-04-07T03:27:15.878Z,38.30
2019-04-07T03:30:06.032Z,35.50
2019-04-07T03:32:53.267Z,37.85
2019-04-07T03:35:42.333Z,37.73
2019-04-07T03:38:12.094Z,39.20
2019-04-07T03:40:52.896Z,36.35
2019-04-07T03:43:24.304Z,39.10
2019-04-07T03:46:06.030Z,38.02
2019-04-07T03:48:41.515Z,37.48
2019-04-07T03:51:30.011Z,38.33
2019-04-07T03:54:04.485Z,37.15
2019-04-07T03:56:53.669Z,38.90
2019-04-07T03:59:34.025Z,36.23
2019-04-07T04:02:08.108Z,38.10
2019-04-07T04:04:39.600Z,41.48
2019-04-07T04:07:25.526Z,37.00
2019-04-07T04:09:48.672Z,39.05
2019-04-07T04:12:21.299Z,39.10
2019-04-07T04:14:54.728Z,36.50
2019-04-07T04:17:25.100Z,39.03
2019-04-07T04:19:55.200Z,40.45
2019-04-07T04:22:24.887Z,39.40
2019-04-07T04:24:55.455Z,41.40
2019-04-07T04:27:25.210Z,40.63
2019-04-07T04:29:55.315Z,41.02
2019-04-07T04:32:25.529Z,39.60
2019-04-07T04:34:55.214Z,40.67
2019-04-07T04:37:37.754Z,41.88
2019-04-07T04:39:56.142Z,39.65
2019-04-07T04:42:25.714Z,39.60
2019-04-07T04:44:55.261Z,41.42
2019-04-07T04:47:25.200Z,41.00
2019-04-07T04:49:54.812Z,38.90
2019-04-07T04:52:24.342Z,40.50
2019-04-07T04:54:54.897Z,38.35
2019-04-07T04:57:25.209Z,40.03
2019-04-07T04:59:54.797Z,43.08
2019-04-07T05:02:24.501Z,44.00
2019-04-07T05:04:54.265Z,41.15
2019-04-07T05:07:24.520Z,39.42
2019-04-07T05:09:55.731Z,43.75
2019-04-07T05:12:25.924Z,37.05
2019-04-07T05:14:55.959Z,39.08
2019-04-07T05:17:26.052Z,39.42
2019-04-07T05:19:56.509Z,40.48
2019-04-07T05:22:26.746Z,44.85
2019-04-07T05:24:56.654Z,47.27
2019-04-07T05:27:27.561Z,54.53
2019-04-07T05:29:57.467Z,46.00
2019-04-07T05:32:27.040Z,38.60
2019-04-07T05:34:56.736Z,50.43
2019-04-07T05:37:26.835Z,49.77
2019-04-07T05:39:56.560Z,39.05
2019-04-07T05:42:26.229Z,40.78
2019-04-07T05:44:56.043Z,34.05
2019-04-07T05:47:25.770Z,35.58
2019-04-07T05:49:58.454Z,39.58
2019-04-07T05:52:27.215Z,41.13
2019-04-07T05:54:56.815Z,37.48
2019-04-07T05:57:26.417Z,35.28
2019-04-07T05:59:58.020Z,39.90
2019-04-07T06:02:31.386Z,37.38
2019-04-07T06:05:00.284Z,37.00
2019-04-07T06:07:31.546Z,30.97
2019-04-07T06:10:02.370Z,28.83
2019-04-07T06:12:32.808Z,26.62
2019-04-07T06:15:02.644Z,29.10
2019-04-07T06:17:32.238Z,26.93
2019-04-07T06:20:02.631Z,28.95
2019-04-07T06:22:32.191Z,31.65
2019-04-07T06:25:03.099Z,30.75
2019-04-07T06:27:33.631Z,28.00
2019-04-07T06:30:06.082Z,24.55
2019-04-07T06:32:37.587Z,26.40
2019-04-07T06:35:08.568Z,27.80
2019-04-07T06:37:38.654Z,27.70
2019-04-07T06:40:09.043Z,24.82
2019-04-07T06:42:38.873Z,26.93
2019-04-07T06:45:10.973Z,21.25
2019-04-07T06:50:25.798Z,28.02
2019-04-07T06:53:10.685Z,25.08
2019-04-07T06:55:50.914Z,26.37
2019-04-07T06:58:41.366Z,27.20
2019-04-07T07:01:07.747Z,30.68
2019-04-07T07:03:46.384Z,32.13
2019-04-07T07:06:28.466Z,27.02
2019-04-07T07:08:58.394Z,29.35
2019-04-07T07:11:46.134Z,33.53
2019-04-07T07:14:32.906Z,31.40
2019-04-07T07:16:53.076Z,29.23
2019-04-07T07:19:39.959Z,28.17
2019-04-07T07:22:14.741Z,30.02
2019-04-07T07:24:46.771Z,29.07
2019-04-07T07:27:15.428Z,29.30
2019-04-07T07:29:45.962Z,29.70
2019-04-07T07:32:16.970Z,30.43
2019-04-07T07:34:46.729Z,29.55
2019-04-07T07:37:16.357Z,28.87
2019-04-07T07:39:46.792Z,31.40
2019-04-07T07:42:19.069Z,29.05
2019-04-07T07:44:48.382Z,29.00
2019-04-07T07:47:20.734Z,26.17
2019-04-07T07:49:49.771Z,26.87
2019-04-07T07:52:21.577Z,30.23
2019-04-07T07:54:50.831Z,28.77
2019-04-07T07:57:23.509Z,34.33
2019-04-07T07:59:52.037Z,31.50
2019-04-07T08:02:22.038Z,39.25
2019-04-07T08:04:52.754Z,34.03
2019-04-07T08:07:23.611Z,32.85
2019-04-07T08:09:54.355Z,31.10
2019-04-07T08:12:25.434Z,34.85
2019-04-07T08:14:57.487Z,30.82
2019-04-07T08:17:27.580Z,30.53
2019-04-07T08:19:57.786Z,33.10
2019-04-07T08:22:33.755Z,30.95
2019-04-07T08:24:58.851Z,26.90
2019-04-07T08:27:31.020Z,29.87
2019-04-07T08:29:59.671Z,28.50
2019-04-07T08:32:31.937Z,28.80
2019-04-07T08:35:03.789Z,27.80
2019-04-07T08:37:31.901Z,29.27
2019-04-07T08:40:04.307Z,26.75
2019-04-07T08:42:32.889Z,29.07
2019-04-07T08:45:03.308Z,27.58
2019-04-07T08:47:33.454Z,29.87
2019-04-07T08:50:03.268Z,29.37
2019-04-07T08:52:33.206Z,30.23
2019-04-07T08:55:03.059Z,27.37
2019-04-07T08:57:32.641Z,27.82
2019-04-07T09:00:02.336Z,29.37
2019-04-07T09:02:32.217Z,30.45
2019-04-07T09:05:02.627Z,30.88
2019-04-07T09:07:33.514Z,28.92
2019-04-07T09:10:04.622Z,30.53
2019-04-07T09:12:34.952Z,27.13
2019-04-07T09:15:09.466Z,28.95
2019-04-07T09:17:47.136Z,26.73
2019-04-07T09:20:26.797Z,26.23
2019-04-07T09:22:58.292Z,27.93
2019-04-07T09:25:45.346Z,29.10
2019-04-07T09:28:14.733Z,26.97
2019-04-07T09:30:46.031Z,28.50
2019-04-07T09:33:21.576Z,29.00
2019-04-07T09:35:56.666Z,29.80
2019-04-07T09:38:42.115Z,27.32
2019-04-07T09:41:14.360Z,26.70
2019-04-07T09:44:03.206Z,28.15
2019-04-07T09:46:51.341Z,29.02
2019-04-07T09:49:34.336Z,28.23
2019-04-07T09:52:22.119Z,25.52
2019-04-07T09:54:55.490Z,26.12
2019-04-07T09:57:36.070Z,28.85
2019-04-07T10:00:08.519Z,26.45
2019-04-07T10:02:55.829Z,28.98
2019-04-07T10:05:35.933Z,29.27
2019-04-07T10:08:07.377Z,30.72
2019-04-07T10:10:55.916Z,28.57
2019-04-07T10:13:28.546Z,28.87
2019-04-07T10:16:02.847Z,29.23
2019-04-07T10:18:50.899Z,26.23
2019-04-07T10:21:20.663Z,28.15
2019-04-07T10:23:50.889Z,28.30
2019-04-07T10:26:43.005Z,28.17
2019-04-07T10:29:14.253Z,27.22
2019-04-07T10:31:47.864Z,27.33
2019-04-07T10:34:32.008Z,27.58
2019-04-07T10:37:18.927Z,26.30
2019-04-07T10:39:52.736Z,27.40
2019-04-07T10:42:30.265Z,25.90
2019-04-07T10:45:04.803Z,26.27
2019-04-07T10:47:47.528Z,25.52
2019-04-07T10:50:35.411Z,26.25
2019-04-07T10:53:17.082Z,26.77
2019-04-07T10:56:04.081Z,27.75
2019-04-07T10:58:42.491Z,27.52
2019-04-07T11:01:19.658Z,27.62
2019-04-07T11:03:53.741Z,27.10
2019-04-07T11:06:40.611Z,26.82
2019-04-07T11:09:14.399Z,26.23
2019-04-07T11:11:57.540Z,26.93
2019-04-07T11:14:37.454Z,27.27
2019-04-07T11:17:17.256Z,26.33
2019-04-07T11:19:53.124Z,26.80
2019-04-07T11:22:40.276Z,25.82
2019-04-07T11:25:18.246Z,26.02
2019-04-07T11:28:05.960Z,25.08
2019-04-07T11:30:54.134Z,24.52
2019-04-07T11:33:39.357Z,24.52
2019-04-07T11:36:11.370Z,23.25
2019-04-07T11:38:43.015Z,26.00
2019-04-07T11:41:14.396Z,24.60
2019-04-07T11:43:45.691Z,24.67
2019-04-07T11:46:14.990Z,25.40
2019-04-07T11:48:46.835Z,24.55
2019-04-07T11:51:19.516Z,25.27
2019-04-07T11:53:51.263Z,24.60
2019-04-07T11:56:26.461Z,25.08
2019-04-07T11:59:03.404Z,25.75
2019-04-07T12:01:49.790Z,24.45
2019-04-07T12:04:26.746Z,24.85
2019-04-07T12:07:14.514Z,25.68
2019-04-07T12:10:00.597Z,24.35
2019-04-07T12:12:37.481Z,22.95
2019-04-07T12:15:08.501Z,21.75
2019-04-07T12:17:49.194Z,23.40
2019-04-07T12:20:37.550Z,24.75
2019-04-07T12:23:23.398Z,21.02
2019-04-07T12:26:10.095Z,22.13
2019-04-07T12:28:59.399Z,22.98
2019-04-07T12:31:42.390Z,23.02
2019-04-07T12:34:16.755Z,22.73
2019-04-07T12:37:07.593Z,23.42
2019-04-07T12:39:36.058Z,25.80
2019-04-07T12:42:11.340Z,22.70
2019-04-07T12:44:44.104Z,22.70
2019-04-07T12:47:32.050Z,20.75
2019-04-07T12:50:05.841Z,21.35
2019-04-07T12:52:48.895Z,22.10
2019-04-07T12:55:20.812Z,19.52
2019-04-07T12:58:04.906Z,21.42
2019-04-07T13:00:52.991Z,21.57
2019-04-07T13:03:14.305Z,21.50
2019-04-07T13:05:59.105Z,20.23
2019-04-07T13:08:30.614Z,19.42
2019-04-07T13:11:09.687Z,19.92
2019-04-07T13:13:38.844Z,18.65
2019-04-07T13:16:20.320Z,20.03
2019-04-07T13:18:54.300Z,21.17
2019-04-07T13:21:38.150Z,19.17
2019-04-07T13:24:30.219Z,20.10
2019-04-07T13:26:57.284Z,19.32
2019-04-07T13:29:40.101Z,20.12
2019-04-07T13:32:14.198Z,19.20
2019-04-07T13:34:54.436Z,18.48
2019-04-07T13:37:43.790Z,20.05
2019-04-07T13:40:28.407Z,19.60
2019-04-07T13:43:01.898Z,17.60
2019-04-07T13:45:33.013Z,19.20
2019-04-07T13:48:05.912Z,20.12
2019-04-07T13:50:38.308Z,19.80
2019-04-07T13:53:13.340Z,18.40
2019-04-07T13:55:50.900Z,20.15
2019-04-07T13:58:26.197Z,18.60
2019-04-07T14:01:13.787Z,18.90
2019-04-07T14:03:45.262Z,19.48
2019-04-07T14:06:25.652Z,19.90
2019-04-07T14:09:01.383Z,20.20
2019-04-07T14:11:53.438Z,20.80
2019-04-07T14:14:30.370Z,19.00
2019-04-07T14:17:01.572Z,18.52
2019-04-07T14:19:50.972Z,19.77
2019-04-07T14:22:38.390Z,19.42
2019-04-07T14:25:18.045Z,19.82
2019-04-07T14:27:53.717Z,20.25
2019-04-07T14:30:23.397Z,20.40
2019-04-07T14:32:52.913Z,19.40
2019-04-07T14:35:30.482Z,20.52
2019-04-07T14:38:02.570Z,19.73
2019-04-07T14:40:34.643Z,20.48
2019-04-07T14:45:49.043Z,20.00
2019-04-07T14:48:20.472Z,20.72
2019-04-07T14:51:01.230Z,20.50
2019-04-07T14:53:42.097Z,20.62
2019-04-07T14:56:17.545Z,20.52
2019-04-07T14:58:53.386Z,21.00
2019-04-07T15:01:23.658Z,21.10
2019-04-07T15:03:53.433Z,21.25
2019-04-07T15:06:23.884Z,20.50
2019-04-07T15:09:04.749Z,19.97
2019-04-07T15:11:41.209Z,21.42
2019-04-07T15:14:11.655Z,20.23
2019-04-07T15:16:42.827Z,22.75
2019-04-07T15:19:12.369Z,22.17
2019-04-07T15:21:41.975Z,22.75
2019-04-07T15:24:11.563Z,24.23
2019-04-07T15:26:41.143Z,29.07
2019-04-07T15:29:10.987Z,31.97
2019-04-07T15:31:41.838Z,32.25
2019-04-07T15:34:13.983Z,25.75
2019-04-07T15:36:43.960Z,26.20
2019-04-07T15:39:13.727Z,25.85
2019-04-07T15:41:44.485Z,26.00
2019-04-07T15:44:15.710Z,25.62
2019-04-07T15:46:50.324Z,26.77
2019-04-07T15:49:17.231Z,26.00
2019-04-07T15:51:47.604Z,25.20
2019-04-07T15:54:20.234Z,23.75
2019-04-07T15:56:50.252Z,24.43
2019-04-07T15:59:20.618Z,23.62
2019-04-07T16:01:50.372Z,24.47
2019-04-07T16:04:25.831Z,24.02
2019-04-07T16:06:52.935Z,23.85
2019-04-07T16:09:35.918Z,24.50
2019-04-07T16:11:57.451Z,25.05
2019-04-07T16:14:26.334Z,22.98
2019-04-07T16:17:00.305Z,24.35
2019-04-07T16:19:37.342Z,24.32
2019-04-07T16:21:58.944Z,24.10
2019-04-07T16:24:29.253Z,23.52
2019-04-07T16:27:02.377Z,24.23
2019-04-07T16:29:30.368Z,23.55
2019-04-07T16:32:00.062Z,24.75
2019-04-07T16:34:30.453Z,24.52
2019-04-07T16:37:00.445Z,22.58
2019-04-07T16:39:33.525Z,23.55
2019-04-07T16:42:03.134Z,24.00
2019-04-07T16:44:36.253Z,23.35
2019-04-07T16:47:04.268Z,23.87
2019-04-07T16:49:34.039Z,26.37
2019-04-07T16:52:05.536Z,25.48
2019-04-07T16:54:35.164Z,30.20
2019-04-07T16:57:05.195Z,25.97
2019-04-07T16:59:34.945Z,25.75
2019-04-07T17:02:05.466Z,27.42
2019-04-07T17:04:35.060Z,28.47
2019-04-07T17:07:11.397Z,29.27
2019-04-07T17:12:09.492Z,27.87
2019-04-07T17:14:37.943Z,27.50
2019-04-07T17:17:07.458Z,28.80
2019-04-07T17:19:38.363Z,27.70
2019-04-07T17:22:11.940Z,26.62
2019-04-07T17:24:39.935Z,27.60
2019-04-07T17:27:11.463Z,27.13
2019-04-07T17:29:41.621Z,27.25
2019-04-07T17:32:12.179Z,27.95
2019-04-07T17:34:43.454Z,28.55
2019-04-07T17:37:13.165Z,29.33
2019-04-07T17:39:53.376Z,28.27
2019-04-07T17:42:26.149Z,29.67
2019-04-07T17:45:09.686Z,29.95
2019-04-07T17:47:41.785Z,27.37
2019-04-07T17:50:16.837Z,27.00
2019-04-07T17:52:57.993Z,27.87
2019-04-07T17:55:29.931Z,26.40
2019-04-07T17:58:08.888Z,27.37
2019-04-07T18:00:56.505Z,27.85
2019-04-07T18:03:39.093Z,29.05
2019-04-07T18:06:08.670Z,28.92
2019-04-07T18:09:05.350Z,33.65
2019-04-07T18:11:29.309Z,34.10
2019-04-07T18:14:19.140Z,31.60
2019-04-07T18:16:50.408Z,29.55
2019-04-07T18:19:28.761Z,35.07
2019-04-07T18:22:12.479Z,36.68
2019-04-07T18:24:47.688Z,37.38
2019-04-07T18:27:21.893Z,35.00
2019-04-07T18:30:09.796Z,44.38
2019-04-07T18:32:41.781Z,43.08
2019-04-07T18:35:32.919Z,39.45
2019-04-07T18:38:01.048Z,34.45
2019-04-07T18:40:48.358Z,30.23
2019-04-07T18:43:36.855Z,30.68
2019-04-07T18:46:08.460Z,26.73
2019-04-07T18:48:59.138Z,26.62
2019-04-07T18:51:47.183Z,31.95
2019-04-07T18:54:32.443Z,33.60
2019-04-07T18:57:05.498Z,35.43
2019-04-07T18:59:59.394Z,35.75
2019-04-07T19:02:28.887Z,42.30
2019-04-07T19:05:14.019Z,41.37
2019-04-07T19:07:47.211Z,38.28
2019-04-07T19:10:23.780Z,40.30
2019-04-07T19:13:15.597Z,41.63
2019-04-07T19:15:49.995Z,39.65
2019-04-07T19:18:22.647Z,42.45
2019-04-07T19:20:57.828Z,44.98
2019-04-07T19:23:29.153Z,43.75
2019-04-07T19:26:10.575Z,43.33
2019-04-07T19:28:47.782Z,48.90
2019-04-07T19:31:19.467Z,41.60
2019-04-07T19:33:49.418Z,38.13
2019-04-07T19:36:27.457Z,40.20
2019-04-07T19:39:00.598Z,40.00
2019-04-07T19:41:32.863Z,36.85
2019-04-07T19:44:07.500Z,36.58
2019-04-07T19:46:44.831Z,37.88
2019-04-07T19:49:22.565Z,37.88
2019-04-07T19:52:10.641Z,38.58
2019-04-07T19:54:58.143Z,38.17
2019-04-07T19:57:45.352Z,39.63
2019-04-07T20:00:21.928Z,39.67
2019-04-07T20:02:53.195Z,38.65
2019-04-07T20:05:25.374Z,38.45
2019-04-07T20:08:14.157Z,39.80
2019-04-07T20:10:51.797Z,41.73
2019-04-07T20:13:26.275Z,41.10
2019-04-07T20:15:58.840Z,40.43
2019-04-07T20:18:30.534Z,41.55
2019-04-07T20:21:08.495Z,41.65
2019-04-07T20:23:43.857Z,42.90
2019-04-07T20:26:31.189Z,42.33
2019-04-07T20:29:09.781Z,42.20
2019-04-07T20:31:41.418Z,43.20
2019-04-07T20:34:12.579Z,41.30
2019-04-07T20:36:42.527Z,41.43
2019-04-07T20:39:13.870Z,41.35
2019-04-07T20:41:43.713Z,42.95
2019-04-07T20:44:33.878Z,43.92
2019-04-07T20:47:08.500Z,42.08
2019-04-07T20:49:40.315Z,42.55
2019-04-07T20:52:22.259Z,41.73
2019-04-07T20:54:50.944Z,40.60
2019-04-07T20:57:23.824Z,44.57
2019-04-07T21:00:06.855Z,44.98
2019-04-07T21:02:39.255Z,46.05
2019-04-07T21:05:12.342Z,43.68
2019-04-07T21:07:51.235Z,44.30
2019-04-07T21:10:27.514Z,46.70
2019-04-07T21:13:16.775Z,47.67
2019-04-07T21:15:55.333Z,46.20
2019-04-07T21:18:32.376Z,46.28
2019-04-07T21:21:22.009Z,47.23
2019-04-07T21:24:05.819Z,45.43
2019-04-07T21:26:37.198Z,47.60
2019-04-07T21:29:10.850Z,47.38
2019-04-07T21:31:46.677Z,49.48
2019-04-07T21:34:33.375Z,48.52
2019-04-07T21:37:10.677Z,49.53
2019-04-07T21:39:41.837Z,49.83
2019-04-07T21:42:29.406Z,52.23
2019-04-07T21:45:04.010Z,55.75
2019-04-07T21:47:42.218Z,56.33
2019-04-07T21:50:30.269Z,56.08
2019-04-07T21:53:08.721Z,59.38
2019-04-07T21:55:46.517Z,60.70
2019-04-07T21:58:22.350Z,58.55
2019-04-07T22:01:02.911Z,59.10
2019-04-07T22:03:52.503Z,59.42
2019-04-07T22:06:26.540Z,63.35
2019-04-07T22:09:02.600Z,60.80
2019-04-07T22:11:32.607Z,60.55
2019-04-07T22:14:04.045Z,59.20
2019-04-07T22:16:34.256Z,61.00
2019-04-07T22:19:04.242Z,56.75
2019-04-07T22:21:34.216Z,56.18
2019-04-07T22:24:04.818Z,52.85
2019-04-07T22:26:34.982Z,49.35
2019-04-07T22:29:05.567Z,49.20
2019-04-07T22:31:36.855Z,45.60
2019-04-07T22:34:06.893Z,45.83
2019-04-07T22:36:36.711Z,44.08
2019-04-07T22:39:07.829Z,42.10
2019-04-07T22:41:41.219Z,42.53
2019-04-07T22:44:09.224Z,40.65
2019-04-07T22:46:39.583Z,42.15
2019-04-07T22:49:09.379Z,42.43
2019-04-07T22:51:43.014Z,40.73
2019-04-07T22:54:10.274Z,41.18
2019-04-07T22:56:40.804Z,39.50
2019-04-07T22:59:11.894Z,41.13
2019-04-07T23:01:43.051Z,39.78
2019-04-07T23:04:12.674Z,37.38
2019-04-07T23:06:42.575Z,39.33
2019-04-07T23:09:13.387Z,37.28
2019-04-07T23:11:44.015Z,36.95
2019-04-07T23:14:13.812Z,36.42
2019-04-07T23:16:44.970Z,37.00
2019-04-07T23:19:14.518Z,31.80
2019-04-07T23:21:44.094Z,34.33
2019-04-07T23:24:13.703Z,32.70
2019-04-07T23:26:43.292Z,31.33
2019-04-07T23:29:12.893Z,28.65
2019-04-07T23:31:42.505Z,28.75
2019-04-07T23:34:12.184Z,27.87
2019-04-07T23:36:42.470Z,28.70
2019-04-07T23:39:13.069Z,29.27
2019-04-07T23:41:43.538Z,29.25
2019-04-07T23:44:13.281Z,27.93
2019-04-07T23:46:43.525Z,26.75
2019-04-07T23:49:13.234Z,26.55
2019-04-07T23:51:43.470Z,25.88
2019-04-07T23:54:14.418Z,26.15
2019-04-07T23:56:45.318Z,25.70
2019-04-07T23:59:15.092Z,25.40
